| time (UTC) | temp C | wind direction | speed KPH | gust KPH | rain 1hr cm | rain 24hr cm | rain mn cm | humidity % | barometer mb |
| 20260508213515 | 23 | 338 | 19.3 | 27.4 | 0.00 | 0.00 | 0.00 | 26 | 1019.0 |
| 20260508213015 | 23 | 338 | 14.5 | 27.4 | 0.00 | 0.00 | 0.00 | 25 | 1019.0 |
| 20260508212515 | 23 | 338 | 16.1 | 29.0 | 0.00 | 0.00 | 0.00 | 26 | 1018.9 |
| 20260508212015 | 23 | 315 | 14.5 | 25.7 | 0.00 | 0.00 | 0.00 | 26 | 1019.0 |
| 20260508211515 | 23 | 338 | 16.1 | 30.6 | 0.00 | 0.00 | 0.00 | 26 | 1019.1 |
| 20260508211015 | 23 | 338 | 17.7 | 30.6 | 0.00 | 0.00 | 0.00 | 24 | 1019.0 |
| 20260508210515 | 22 | 338 | 16.1 | 22.5 | 0.00 | 0.00 | 0.00 | 26 | 1019.1 |
| 20260508210015 | 22 | 338 | 12.9 | 24.1 | 0.00 | 0.00 | 0.00 | 29 | 1019.2 |
| 20260508205535 | 22 | 338 | 14.5 | 22.5 | 0.00 | 0.00 | 0.00 | 28 | 1018.9 |
| 20260508205015 | 21 | 315 | 14.5 | 25.7 | 0.00 | 0.00 | 0.00 | 24 | 1018.9 |
| 20260508204515 | 21 | 315 | 12.9 | 17.7 | 0.00 | 0.00 | 0.00 | 27 | 1019.0 |
| 20260508204015 | 21 | 338 | 14.5 | 20.9 | 0.00 | 0.00 | 0.00 | 27 | 1019.1 |
| 20260508203515 | 21 | 315 | 14.5 | 20.9 | 0.00 | 0.00 | 0.00 | 26 | 1019.0 |
| 20260508203015 | 21 | 315 | 12.9 | 20.9 | 0.00 | 0.00 | 0.00 | 26 | 1019.0 |
| 20260508202515 | 21 | 315 | 11.3 | 20.9 | 0.00 | 0.00 | 0.00 | 25 | 1019.1 |
| 20260508202017 | 21 | 338 | 14.5 | 25.7 | 0.00 | 0.00 | 0.00 | 27 | 1019.1 |
| 20260508201517 | 21 | 338 | 17.7 | 22.5 | 0.00 | 0.00 | 0.00 | 27 | 1019.1 |
| 20260508201017 | 21 | 338 | 16.1 | 24.1 | 0.00 | 0.00 | 0.00 | 27 | 1019.1 |
| 20260508200517 | 21 | 315 | 17.7 | 29.0 | 0.00 | 0.00 | 0.00 | 28 | 1019.1 |
| 20260508200017 | 21 | 23 | 11.3 | 20.9 | 0.00 | 0.00 | 0.00 | 29 | 1019.1 |
| 20260508195517 | 21 | 315 | 9.7 | 17.7 | 0.00 | 0.00 | 0.00 | 31 | 1019.2 |
| 20260508195017 | 21 | 315 | 9.7 | 20.9 | 0.00 | 0.00 | 0.00 | 29 | 1019.1 |
| 20260508194517 | 21 | 338 | 9.7 | 19.3 | 0.00 | 0.00 | 0.00 | 31 | 1019.2 |
| 20260508194017 | 21 | 315 | 14.5 | 24.1 | 0.00 | 0.00 | 0.00 | 31 | 1019.3 |
| 20260508193517 | 21 | 338 | 11.3 | 17.7 | 0.00 | 0.00 | 0.00 | 30 | 1019.3 |
| 20260508193017 | 21 | 338 | 11.3 | 19.3 | 0.00 | 0.00 | 0.00 | 29 | 1019.2 |
| 20260508192517 | 21 | 338 | 12.9 | 20.9 | 0.00 | 0.00 | 0.00 | 31 | 1019.3 |
| 20260508192017 | 21 | 315 | 9.7 | 14.5 | 0.00 | 0.00 | 0.00 | 30 | 1019.3 |
| 20260508191517 | 21 | 338 | 12.9 | 19.3 | 0.00 | 0.00 | 0.00 | 30 | 1019.4 |
| 20260508191017 | 21 | 338 | 14.5 | 24.1 | 0.00 | 0.00 | 0.00 | 32 | 1019.4 |
| 20260508190517 | 21 | 315 | 12.9 | 24.1 | 0.00 | 0.00 | 0.00 | 32 | 1019.8 |
| 20260508190017 | 21 | 338 | 12.9 | 22.5 | 0.00 | 0.00 | 0.00 | 30 | 1019.7 |
| 20260508185517 | 21 | 315 | 11.3 | 19.3 | 0.00 | 0.00 | 0.00 | 32 | 1019.8 |
| 20260508185017 | 20 | 315 | 12.9 | 20.9 | 0.00 | 0.00 | 0.00 | 31 | 1019.8 |
| 20260508184517 | 20 | 293 | 9.7 | 14.5 | 0.00 | 0.00 | 0.00 | 34 | 1019.9 |
| 20260508184017 | 20 | 315 | 12.9 | 20.9 | 0.00 | 0.00 | 0.00 | 33 | 1019.9 |
| 20260508183517 | 20 | 315 | 14.5 | 24.1 | 0.00 | 0.00 | 0.00 | 31 | 1019.9 |
| 20260508183017 | 20 | 315 | 11.3 | 22.5 | 0.00 | 0.00 | 0.00 | 35 | 1020.0 |
| 20260508182517 | 20 | 315 | 14.5 | 20.9 | 0.00 | 0.00 | 0.00 | 35 | 1020.0 |
| 20260508182017 | 20 | 315 | 11.3 | 17.7 | 0.00 | 0.00 | 0.00 | 34 | 1020.0 |
| 20260508181517 | 20 | 315 | 8.0 | 16.1 | 0.00 | 0.00 | 0.00 | 35 | 1019.7 |
| 20260508181017 | 20 | 315 | 6.4 | 12.9 | 0.00 | 0.00 | 0.00 | 34 | 1020.1 |
| 20260508180557 | 20 | 315 | 6.4 | 14.5 | 0.00 | 0.00 | 0.00 | 35 | 1019.7 |
| 20260508180037 | 20 | 338 | 4.8 | 9.7 | 0.00 | 0.00 | 0.00 | 35 | 1019.7 |
| 20260508175517 | 20 | 315 | 6.4 | 11.3 | 0.00 | 0.00 | 0.00 | 36 | 1019.9 |
| 20260508175017 | 20 | 315 | 11.3 | 22.5 | 0.00 | 0.00 | 0.00 | 35 | 1020.0 |
| 20260508174517 | 19 | 315 | 11.3 | 19.3 | 0.00 | 0.00 | 0.00 | 33 | 1019.9 |
| 20260508174017 | 20 | 293 | 9.7 | 17.7 | 0.00 | 0.00 | 0.00 | 32 | 1019.9 |
| 20260508173517 | 20 | 293 | 8.0 | 14.5 | 0.00 | 0.00 | 0.00 | 34 | 1019.9 |
| 20260508173017 | 19 | 293 | 11.3 | 14.5 | 0.00 | 0.00 | 0.00 | 35 | 1019.9 |
| 20260508172537 | 19 | 270 | 8.0 | 14.5 | 0.00 | 0.00 | 0.00 | 35 | 1019.9 |
| 20260508172017 | 19 | 293 | 8.0 | 16.1 | 0.00 | 0.00 | 0.00 | 37 | 1020.0 |
| 20260508171517 | 19 | 338 | 8.0 | 12.9 | 0.00 | 0.00 | 0.00 | 37 | 1019.9 |
| 20260508171017 | 19 | 315 | 6.4 | 12.9 | 0.00 | 0.00 | 0.00 | 36 | 1020.0 |
| 20260508170517 | 18 | 270 | 6.4 | 12.9 | 0.00 | 0.00 | 0.00 | 35 | 1019.9 |
| 20260508170025 | 18 | 315 | 6.4 | 11.3 | 0.00 | 0.00 | 0.00 | 38 | 1019.9 |
| 20260508165517 | 18 | 338 | 4.8 | 9.7 | 0.00 | 0.00 | 0.00 | 37 | 1019.9 |
| 20260508165037 | 18 | 315 | 4.8 | 9.7 | 0.00 | 0.00 | 0.00 | 39 | 1019.9 |
| 20260508164517 | 18 | 315 | 3.2 | 6.4 | 0.00 | 0.00 | 0.00 | 35 | 1019.5 |
| 20260508164016 | 18 | 315 | 3.2 | 4.8 | 0.00 | 0.00 | 0.00 | 39 | 1019.5 |
| 20260508163516 | 18 | 270 | 4.8 | 9.7 | 0.00 | 0.00 | 0.00 | 37 | 1019.5 |
| 20260508163016 | 18 | 270 | 3.2 | 6.4 | 0.00 | 0.00 | 0.00 | 38 | 1019.4 |
| 20260508162517 | 17 | 338 | 3.2 | 4.8 | 0.00 | 0.00 | 0.00 | 41 | 1019.5 |
| 20260508162017 | 17 | 315 | 1.6 | 6.4 | 0.00 | 0.00 | 0.00 | 42 | 1019.6 |
| 20260508161517 | 17 | 338 | 6.4 | 12.9 | 0.00 | 0.00 | 0.00 | 42 | 1019.6 |
| 20260508161017 | 17 | 338 | 4.8 | 11.3 | 0.00 | 0.00 | 0.00 | 43 | 1019.6 |
| 20260508160516 | 17 | 338 | 8.0 | 11.3 | 0.00 | 0.00 | 0.00 | 42 | 1019.6 |
| 20260508160017 | 17 | 315 | 9.7 | 12.9 | 0.00 | 0.00 | 0.00 | 45 | 1019.8 |
| 20260508155536 | 17 | 315 | 9.7 | 14.5 | 0.00 | 0.00 | 0.00 | 46 | 1019.7 |
| 20260508155016 | 17 | 338 | 9.7 | 14.5 | 0.00 | 0.00 | 0.00 | 48 | 1019.7 |
| 20260508154517 | 17 | 338 | 8.0 | 11.3 | 0.00 | 0.00 | 0.00 | 44 | 1019.6 |
| 20260508154036 | 17 | 338 | 6.4 | 11.3 | 0.00 | 0.00 | 0.00 | 42 | 1019.6 |
| 20260508153517 | 17 | 338 | 9.7 | 12.9 | 0.00 | 0.00 | 0.00 | 42 | 1019.5 |
| 20260508153056 | 17 | 338 | 8.0 | 12.9 | 0.00 | 0.00 | 0.00 | 38 | 1019.8 |
| 20260508152517 | 17 | 23 | 1.6 | 6.4 | 0.00 | 0.00 | 0.00 | 36 | 1019.4 |
| 20260508152016 | 17 | 23 | 4.8 | 8.0 | 0.00 | 0.00 | 0.00 | 37 | 1019.7 |
| 20260508151516 | 17 | 315 | 3.2 | 6.4 | 0.00 | 0.00 | 0.00 | 34 | 1019.6 |
| 20260508151017 | 17 | 0.0 | 3.2 | 0.00 | 0.00 | 0.00 | 35 | 1019.6 | |
| 20260508150517 | 17 | 0.0 | 0.0 | 0.00 | 0.00 | 0.00 | 35 | 1019.6 | |
| 20260508150039 | 17 | 0.0 | 0.0 | 0.00 | 0.00 | 0.00 | 36 | 1019.4 | |
| 20260508145516 | 16 | 0.0 | 4.8 | 0.00 | 0.00 | 0.00 | 35 | 1019.3 | |
| 20260508145037 | 16 | 45 | 3.2 | 4.8 | 0.00 | 0.00 | 0.00 | 34 | 1019.3 |
| 20260508144517 | 16 | 0.0 | 3.2 | 0.00 | 0.00 | 0.00 | 35 | 1019.3 | |
| 20260508144016 | 16 | 0.0 | 0.0 | 0.00 | 0.00 | 0.00 | 37 | 1019.0 | |
| 20260508143516 | 16 | 0.0 | 0.0 | 0.00 | 0.00 | 0.00 | 38 | 1019.9 | |
| 20260508143017 | 15 | 0.0 | 0.0 | 0.00 | 0.00 | 0.00 | 37 | 1019.6 | |
| 20260508142536 | 15 | 0.0 | 0.0 | 0.00 | 0.00 | 0.00 | 37 | 1019.5 | |
| 20260508142017 | 15 | 0.0 | 0.0 | 0.00 | 0.00 | 0.00 | 39 | 1019.5 | |
| 20260508141517 | 14 | 0.0 | 0.0 | 0.00 | 0.00 | 0.00 | 41 | 1019.1 | |
| 20260508141017 | 13 | 0.0 | 3.2 | 0.00 | 0.00 | 0.00 | 41 | 1019.1 | |
| 20260508140517 | 13 | 0.0 | 3.2 | 0.00 | 0.00 | 0.00 | 41 | 1019.0 | |
| 20260508140018 | 13 | 45 | 3.2 | 6.4 | 0.00 | 0.00 | 0.00 | 42 | 1019.1 |
| 20260508135516 | 13 | 68 | 6.4 | 8.0 | 0.00 | 0.00 | 0.00 | 41 | 1018.7 |
| 20260508135036 | 12 | 68 | 4.8 | 8.0 | 0.00 | 0.00 | 0.00 | 42 | 1018.6 |
| 20260508134516 | 12 | 68 | 3.2 | 8.0 | 0.00 | 0.00 | 0.00 | 40 | 1018.6 |
| 20260508134017 | 12 | 0.0 | 0.0 | 0.00 | 0.00 | 0.00 | 40 | 1018.4 | |
| 20260508133516 | 12 | 68 | 4.8 | 11.3 | 0.00 | 0.00 | 0.00 | 41 | 1018.8 |
| 20260508133016 | 12 | 90 | 4.8 | 9.7 | 0.00 | 0.00 | 0.00 | 42 | 1018.7 |
| 20260508132516 | 12 | 90 | 4.8 | 9.7 | 0.00 | 0.00 | 0.00 | 41 | 1018.8 |
| 20260508132016 | 12 | 90 | 6.4 | 9.7 | 0.00 | 0.00 | 0.00 | 41 | 1018.7 |
| 20260508131536 | 12 | 68 | 3.2 | 6.4 | 0.00 | 0.00 | 0.00 | 40 | 1018.5 |
| 20260508131016 | 12 | 68 | 3.2 | 6.4 | 0.00 | 0.00 | 0.00 | 40 | 1018.5 |
| 20260508130516 | 12 | 0.0 | 3.2 | 0.00 | 0.00 | 0.00 | 41 | 1018.5 | |
| 20260508130016 | 12 | 68 | 1.6 | 4.8 | 0.00 | 0.00 | 0.00 | 39 | 1018.4 |
| 20260508125517 | 12 | 68 | 3.2 | 6.4 | 0.00 | 0.00 | 0.00 | 39 | 1018.4 |
| 20260508125016 | 12 | 68 | 4.8 | 6.4 | 0.00 | 0.00 | 0.00 | 39 | 1018.2 |
| 20260508124516 | 13 | 68 | 3.2 | 6.4 | 0.00 | 0.00 | 0.00 | 38 | 1018.2 |
| 20260508124016 | 13 | 68 | 6.4 | 11.3 | 0.00 | 0.00 | 0.00 | 37 | 1018.4 |
| 20260508123556 | 13 | 68 | 3.2 | 6.4 | 0.00 | 0.00 | 0.00 | 38 | 1018.1 |
| 20260508123057 | 13 | 68 | 3.2 | 6.4 | 0.00 | 0.00 | 0.00 | 37 | 1018.0 |
| 20260508122516 | 13 | 68 | 4.8 | 11.3 | 0.00 | 0.00 | 0.00 | 37 | 1017.9 |
| 20260508122016 | 13 | 68 | 6.4 | 8.0 | 0.00 | 0.00 | 0.00 | 36 | 1018.3 |
| 20260508121516 | 13 | 90 | 8.0 | 12.9 | 0.00 | 0.00 | 0.00 | 36 | 1018.2 |
| 20260508121016 | 13 | 90 | 9.7 | 12.9 | 0.00 | 0.00 | 0.00 | 36 | 1018.2 |
| 20260508120516 | 14 | 90 | 11.3 | 12.9 | 0.00 | 0.00 | 0.00 | 35 | 1017.8 |
| 20260508120031 | 14 | 90 | 11.3 | 14.5 | 0.00 | 0.00 | 0.00 | 35 | 1017.8 |
| 20260508115516 | 14 | 90 | 9.7 | 12.9 | 0.00 | 0.00 | 0.00 | 35 | 1017.8 |
| 20260508115017 | 14 | 90 | 9.7 | 11.3 | 0.00 | 0.00 | 0.00 | 35 | 1017.7 |
| 20260508114516 | 14 | 68 | 9.7 | 14.5 | 0.00 | 0.00 | 0.00 | 35 | 1017.7 |
| 20260508114016 | 14 | 45 | 8.0 | 12.9 | 0.00 | 0.00 | 0.00 | 35 | 1017.6 |
| 20260508113516 | 14 | 45 | 11.3 | 19.3 | 0.00 | 0.00 | 0.00 | 35 | 1017.7 |
| 20260508113016 | 14 | 68 | 11.3 | 17.7 | 0.00 | 0.00 | 0.00 | 35 | 1017.6 |
| 20260508112536 | 14 | 68 | 11.3 | 14.5 | 0.00 | 0.00 | 0.00 | 36 | 1017.7 |
| 20260508112016 | 14 | 68 | 9.7 | 17.7 | 0.00 | 0.00 | 0.00 | 36 | 1017.7 |
| 20260508111516 | 14 | 68 | 8.0 | 12.9 | 0.00 | 0.00 | 0.00 | 36 | 1017.6 |
| 20260508111016 | 14 | 68 | 11.3 | 14.5 | 0.00 | 0.00 | 0.00 | 36 | 1017.7 |
| 20260508110516 | 14 | 90 | 11.3 | 14.5 | 0.00 | 0.00 | 0.00 | 36 | 1017.3 |
| 20260508110144 | 14 | 90 | 11.3 | 14.5 | 0.00 | 0.00 | 0.00 | 36 | 1017.3 |
| 20260508105516 | 13 | 90 | 11.3 | 14.5 | 0.00 | 0.00 | 0.00 | 37 | 1017.3 |
| 20260508105016 | 13 | 113 | 12.9 | 16.1 | 0.00 | 0.00 | 0.00 | 39 | 1017.3 |
| 20260508104516 | 13 | 113 | 12.9 | 16.1 | 0.00 | 0.00 | 0.00 | 42 | 1017.3 |
| 20260508104016 | 13 | 113 | 12.9 | 14.5 | 0.00 | 0.00 | 0.00 | 42 | 1017.0 |
| 20260508103516 | 13 | 113 | 12.9 | 14.5 | 0.00 | 0.00 | 0.00 | 43 | 1017.3 |
| 20260508103036 | 13 | 113 | 6.4 | 12.9 | 0.00 | 0.00 | 0.00 | 43 | 1017.3 |
| 20260508102516 | 13 | 113 | 3.2 | 6.4 | 0.00 | 0.00 | 0.00 | 44 | 1017.3 |
| 20260508102016 | 13 | 113 | 4.8 | 8.0 | 0.00 | 0.00 | 0.00 | 43 | 1017.3 |
| 20260508101516 | 13 | 113 | 6.4 | 11.3 | 0.00 | 0.00 | 0.00 | 43 | 1017.2 |
| 20260508101016 | 13 | 113 | 4.8 | 8.0 | 0.00 | 0.00 | 0.00 | 43 | 1017.2 |
| 20260508100516 | 13 | 113 | 1.6 | 6.4 | 0.00 | 0.00 | 0.00 | 42 | 1017.2 |
| 20260508100016 | 13 | 0.0 | 0.0 | 0.00 | 0.00 | 0.00 | 43 | 1017.3 | |
| 20260508095516 | 13 | 0.0 | 0.0 | 0.00 | 0.00 | 0.00 | 43 | 1017.3 | |
| 20260508095016 | 13 | 113 | 1.6 | 4.8 | 0.00 | 0.00 | 0.00 | 43 | 1017.1 |
| 20260508094516 | 12 | 113 | 3.2 | 8.0 | 0.00 | 0.00 | 0.00 | 44 | 1016.9 |
| 20260508094016 | 13 | 68 | 1.6 | 6.4 | 0.00 | 0.00 | 0.00 | 45 | 1016.8 |
| 20260508093516 | 13 | 68 | 4.8 | 8.0 | 0.00 | 0.00 | 0.00 | 44 | 1017.2 |
| 20260508093016 | 13 | 68 | 8.0 | 11.3 | 0.00 | 0.00 | 0.00 | 44 | 1017.1 |
| 20260508092516 | 13 | 68 | 8.0 | 11.3 | 0.00 | 0.00 | 0.00 | 44 | 1017.1 |
| 20260508092036 | 13 | 68 | 6.4 | 11.3 | 0.00 | 0.00 | 0.00 | 44 | 1017.0 |
| 20260508091516 | 13 | 68 | 4.8 | 6.4 | 0.00 | 0.00 | 0.00 | 43 | 1017.0 |
| 20260508091016 | 13 | 68 | 3.2 | 6.4 | 0.00 | 0.00 | 0.00 | 43 | 1017.0 |
| 20260508090516 | 13 | 68 | 6.4 | 8.0 | 0.00 | 0.00 | 0.00 | 44 | 1016.7 |
| 20260508090022 | 13 | 68 | 8.0 | 12.9 | 0.00 | 0.00 | 0.00 | 44 | 1016.6 |
| 20260508085516 | 13 | 68 | 8.0 | 11.3 | 0.00 | 0.00 | 0.00 | 43 | 1016.7 |
| 20260508085036 | 13 | 68 | 8.0 | 11.3 | 0.00 | 0.00 | 0.00 | 43 | 1016.7 |
| 20260508084516 | 14 | 68 | 8.0 | 12.9 | 0.00 | 0.00 | 0.00 | 43 | 1016.8 |
| 20260508084016 | 14 | 68 | 9.7 | 12.9 | 0.00 | 0.00 | 0.00 | 43 | 1017.1 |
| 20260508083516 | 14 | 68 | 11.3 | 14.5 | 0.00 | 0.00 | 0.00 | 43 | 1017.1 |
| 20260508083016 | 14 | 68 | 11.3 | 14.5 | 0.00 | 0.00 | 0.00 | 43 | 1017.2 |
| 20260508082516 | 14 | 90 | 9.7 | 12.9 | 0.00 | 0.00 | 0.00 | 43 | 1017.2 |
| 20260508082016 | 14 | 90 | 9.7 | 12.9 | 0.00 | 0.00 | 0.00 | 43 | 1017.2 |
| 20260508081516 | 14 | 90 | 9.7 | 11.3 | 0.00 | 0.00 | 0.00 | 43 | 1017.2 |
| 20260508081016 | 14 | 68 | 4.8 | 9.7 | 0.00 | 0.00 | 0.00 | 42 | 1017.3 |
| 20260508080516 | 14 | 45 | 4.8 | 8.0 | 0.00 | 0.00 | 0.00 | 43 | 1017.0 |
| 20260508080017 | 13 | 45 | 3.2 | 6.4 | 0.00 | 0.00 | 0.00 | 43 | 1017.1 |
| 20260508075516 | 13 | 45 | 4.8 | 8.0 | 0.00 | 0.00 | 0.00 | 43 | 1017.1 |
| 20260508075016 | 14 | 45 | 6.4 | 9.7 | 0.00 | 0.00 | 0.00 | 43 | 1017.1 |
| 20260508074516 | 14 | 23 | 6.4 | 9.7 | 0.00 | 0.00 | 0.00 | 42 | 1017.4 |
| 20260508074016 | 14 | 68 | 6.4 | 11.3 | 0.00 | 0.00 | 0.00 | 41 | 1017.4 |
| 20260508073516 | 14 | 45 | 6.4 | 8.0 | 0.00 | 0.00 | 0.00 | 41 | 1017.1 |
| 20260508073016 | 15 | 45 | 4.8 | 8.0 | 0.00 | 0.00 | 0.00 | 40 | 1017.0 |
| 20260508072516 | 15 | 23 | 4.8 | 6.4 | 0.00 | 0.00 | 0.00 | 40 | 1017.3 |
| 20260508072035 | 15 | 45 | 6.4 | 11.3 | 0.00 | 0.00 | 0.00 | 40 | 1017.3 |
| 20260508071516 | 15 | 68 | 6.4 | 8.0 | 0.00 | 0.00 | 0.00 | 39 | 1017.3 |
| 20260508071016 | 15 | 68 | 8.0 | 12.9 | 0.00 | 0.00 | 0.00 | 39 | 1017.3 |
| 20260508070516 | 15 | 68 | 9.7 | 12.9 | 0.00 | 0.00 | 0.00 | 39 | 1017.3 |
| 20260508070016 | 15 | 68 | 9.7 | 12.9 | 0.00 | 0.00 | 0.00 | 39 | 1017.2 |
| 20260508065516 | 15 | 68 | 11.3 | 14.5 | 0.00 | 0.00 | 0.00 | 38 | 1017.2 |
| 20260508065015 | 16 | 68 | 11.3 | 12.9 | 0.00 | 0.00 | 0.00 | 38 | 1017.6 |
| 20260508064536 | 16 | 68 | 11.3 | 12.9 | 0.00 | 0.00 | 0.00 | 37 | 1017.5 |
| 20260508064015 | 16 | 90 | 8.0 | 11.3 | 0.00 | 0.00 | 0.00 | 37 | 1017.5 |
| 20260508063536 | 16 | 90 | 8.0 | 11.3 | 0.00 | 0.00 | 0.00 | 36 | 1017.5 |
| 20260508063015 | 16 | 90 | 8.0 | 12.9 | 0.00 | 0.00 | 0.00 | 36 | 1017.5 |
| 20260508062515 | 16 | 68 | 9.7 | 14.5 | 0.00 | 0.00 | 0.00 | 36 | 1017.5 |
| 20260508062015 | 16 | 68 | 11.3 | 12.9 | 0.00 | 0.00 | 0.00 | 36 | 1017.5 |
| 20260508061516 | 16 | 68 | 9.7 | 14.5 | 0.00 | 0.00 | 0.00 | 36 | 1017.5 |
| 20260508061015 | 16 | 68 | 11.3 | 16.1 | 0.00 | 0.00 | 0.00 | 36 | 1017.4 |
| 20260508060516 | 16 | 68 | 12.9 | 17.7 | 0.00 | 0.00 | 0.00 | 36 | 1017.1 |
| 20260508060017 | 16 | 68 | 12.9 | 16.1 | 0.00 | 0.00 | 0.00 | 36 | 1017.1 |
| 20260508055517 | 16 | 68 | 11.3 | 16.1 | 0.00 | 0.00 | 0.00 | 36 | 1017.1 |
| 20260508055017 | 16 | 90 | 12.9 | 14.5 | 0.00 | 0.00 | 0.00 | 36 | 1017.1 |
| 20260508054517 | 16 | 90 | 11.3 | 14.5 | 0.00 | 0.00 | 0.00 | 36 | 1017.0 |
| 20260508054017 | 16 | 68 | 12.9 | 16.1 | 0.00 | 0.00 | 0.00 | 36 | 1017.0 |
| 20260508053517 | 16 | 68 | 12.9 | 16.1 | 0.00 | 0.00 | 0.00 | 36 | 1017.0 |
| 20260508053017 | 16 | 68 | 12.9 | 16.1 | 0.00 | 0.00 | 0.00 | 36 | 1017.0 |
| 20260508052516 | 16 | 68 | 12.9 | 14.5 | 0.00 | 0.00 | 0.00 | 36 | 1016.9 |
| 20260508052017 | 16 | 68 | 11.3 | 14.5 | 0.00 | 0.00 | 0.00 | 36 | 1016.9 |
| 20260508051517 | 16 | 68 | 12.9 | 14.5 | 0.00 | 0.00 | 0.00 | 36 | 1016.9 |
| 20260508051017 | 16 | 68 | 12.9 | 16.1 | 0.00 | 0.00 | 0.00 | 35 | 1016.9 |
| 20260508050517 | 16 | 68 | 12.9 | 14.5 | 0.00 | 0.00 | 0.00 | 35 | 1016.6 |
| 20260508050017 | 16 | 68 | 11.3 | 14.5 | 0.00 | 0.00 | 0.00 | 35 | 1016.6 |
| 20260508045517 | 16 | 68 | 11.3 | 14.5 | 0.00 | 0.00 | 0.00 | 35 | 1016.6 |
| 20260508045036 | 16 | 90 | 12.9 | 14.5 | 0.00 | 0.00 | 0.00 | 35 | 1016.6 |
| 20260508044537 | 16 | 90 | 11.3 | 14.5 | 0.00 | 0.00 | 0.00 | 35 | 1016.6 |
| 20260508044057 | 16 | 90 | 11.3 | 14.5 | 0.00 | 0.00 | 0.00 | 35 | 1016.7 |
| 20260508043516 | 16 | 90 | 11.3 | 14.5 | 0.00 | 0.00 | 0.00 | 35 | 1016.3 |
| 20260508043017 | 16 | 90 | 12.9 | 14.5 | 0.00 | 0.00 | 0.00 | 35 | 1016.4 |
| 20260508042517 | 16 | 90 | 12.9 | 16.1 | 0.00 | 0.00 | 0.00 | 35 | 1016.4 |
| 20260508042036 | 16 | 90 | 14.5 | 16.1 | 0.00 | 0.00 | 0.00 | 35 | 1016.4 |
| 20260508041516 | 16 | 90 | 12.9 | 14.5 | 0.00 | 0.00 | 0.00 | 35 | 1016.4 |
| 20260508041016 | 16 | 90 | 11.3 | 14.5 | 0.00 | 0.00 | 0.00 | 36 | 1016.4 |
| 20260508040516 | 16 | 90 | 12.9 | 14.5 | 0.00 | 0.00 | 0.00 | 35 | 1016.4 |
| 20260508040018 | 16 | 90 | 9.7 | 14.5 | 0.00 | 0.00 | 0.00 | 35 | 1016.3 |
| 20260508035517 | 16 | 90 | 11.3 | 12.9 | 0.00 | 0.00 | 0.00 | 35 | 1016.3 |
| 20260508035016 | 16 | 90 | 11.3 | 14.5 | 0.00 | 0.00 | 0.00 | 35 | 1016.4 |
| 20260508034516 | 16 | 90 | 11.3 | 14.5 | 0.00 | 0.00 | 0.00 | 35 | 1016.3 |
| 20260508034016 | 17 | 90 | 11.3 | 14.5 | 0.00 | 0.00 | 0.00 | 35 | 1016.6 |
| 20260508033516 | 17 | 90 | 12.9 | 14.5 | 0.00 | 0.00 | 0.00 | 35 | 1015.9 |
| 20260508033036 | 17 | 90 | 9.7 | 12.9 | 0.00 | 0.00 | 0.00 | 34 | 1015.8 |
| 20260508032537 | 17 | 90 | 6.4 | 9.7 | 0.00 | 0.00 | 0.00 | 33 | 1015.7 |
| 20260508032036 | 17 | 90 | 8.0 | 9.7 | 0.00 | 0.00 | 0.00 | 33 | 1015.7 |
| 20260508031517 | 17 | 113 | 9.7 | 12.9 | 0.00 | 0.00 | 0.00 | 33 | 1015.9 |
| 20260508031017 | 17 | 113 | 11.3 | 12.9 | 0.00 | 0.00 | 0.00 | 33 | 1016.0 |
| 20260508030536 | 17 | 113 | 9.7 | 12.9 | 0.00 | 0.00 | 0.00 | 33 | 1016.0 |
| 20260508030018 | 17 | 113 | 9.7 | 12.9 | 0.00 | 0.00 | 0.00 | 33 | 1016.0 |
| 20260508025517 | 17 | 113 | 11.3 | 14.5 | 0.00 | 0.00 | 0.00 | 33 | 1016.0 |
| 20260508025017 | 17 | 113 | 8.0 | 11.3 | 0.00 | 0.00 | 0.00 | 33 | 1016.0 |
| 20260508024536 | 18 | 45 | 3.2 | 4.8 | 0.00 | 0.00 | 0.00 | 32 | 1016.0 |
| 20260508024016 | 18 | 45 | 4.8 | 8.0 | 0.00 | 0.00 | 0.00 | 32 | 1016.2 |
| 20260508023517 | 19 | 90 | 4.8 | 8.0 | 0.00 | 0.00 | 0.00 | 32 | 1016.2 |
| 20260508023017 | 20 | 338 | 4.8 | 6.4 | 0.00 | 0.00 | 0.00 | 31 | 1016.5 |
| 20260508022516 | 20 | 338 | 3.2 | 6.4 | 0.00 | 0.00 | 0.00 | 30 | 1016.6 |
| 20260508022016 | 21 | 338 | 3.2 | 4.8 | 0.00 | 0.00 | 0.00 | 29 | 1017.0 |
| 20260508021517 | 21 | 338 | 3.2 | 4.8 | 0.00 | 0.00 | 0.00 | 29 | 1017.0 |
| 20260508021016 | 21 | 338 | 4.8 | 6.4 | 0.00 | 0.00 | 0.00 | 28 | 1017.0 |
| 20260508020537 | 21 | 315 | 3.2 | 4.8 | 0.00 | 0.00 | 0.00 | 29 | 1016.3 |
| 20260508020018 | 22 | 315 | 3.2 | 4.8 | 0.00 | 0.00 | 0.00 | 28 | 1016.3 |
| 20260508015516 | 21 | 315 | 4.8 | 8.0 | 0.00 | 0.00 | 0.00 | 28 | 1016.3 |
| 20260508015016 | 21 | 315 | 4.8 | 8.0 | 0.00 | 0.00 | 0.00 | 28 | 1016.3 |
| 20260508014517 | 22 | 293 | 6.4 | 9.7 | 0.00 | 0.00 | 0.00 | 27 | 1016.3 |
| 20260508014016 | 22 | 315 | 6.4 | 11.3 | 0.00 | 0.00 | 0.00 | 27 | 1016.6 |
| 20260508013516 | 22 | 293 | 6.4 | 11.3 | 0.00 | 0.00 | 0.00 | 26 | 1017.0 |
| 20260508013016 | 22 | 315 | 8.0 | 12.9 | 0.00 | 0.00 | 0.00 | 27 | 1017.0 |
| 20260508012536 | 22 | 315 | 9.7 | 14.5 | 0.00 | 0.00 | 0.00 | 26 | 1017.2 |
| 20260508012017 | 22 | 0 | 6.4 | 11.3 | 0.00 | 0.00 | 0.00 | 28 | 1017.2 |
| 20260508011516 | 22 | 0 | 3.2 | 8.0 | 0.00 | 0.00 | 0.00 | 27 | 1017.1 |
| 20260508011016 | 22 | 0 | 3.2 | 9.7 | 0.00 | 0.00 | 0.00 | 25 | 1017.3 |
| 20260508010536 | 22 | 0 | 6.4 | 12.9 | 0.00 | 0.00 | 0.00 | 26 | 1017.0 |
| 20260508010021 | 22 | 338 | 6.4 | 9.7 | 0.00 | 0.00 | 0.00 | 26 | 1017.0 |
| 20260508005516 | 22 | 270 | 4.8 | 8.0 | 0.00 | 0.00 | 0.00 | 25 | 1017.1 |
| 20260508005016 | 22 | 293 | 6.4 | 12.9 | 0.00 | 0.00 | 0.00 | 25 | 1016.9 |
| 20260508004516 | 22 | 293 | 6.4 | 11.3 | 0.00 | 0.00 | 0.00 | 25 | 1016.9 |
| 20260508004016 | 23 | 293 | 3.2 | 9.7 | 0.00 | 0.00 | 0.00 | 25 | 1017.2 |
| 20260508003536 | 22 | 293 | 1.6 | 9.7 | 0.00 | 0.00 | 0.00 | 26 | 1016.9 |
| 20260508003016 | 23 | 45 | 6.4 | 12.9 | 0.00 | 0.00 | 0.00 | 26 | 1017.1 |
| 20260508002516 | 22 | 338 | 6.4 | 12.9 | 0.00 | 0.00 | 0.00 | 26 | 1017.2 |
| 20260508002016 | 22 | 45 | 8.0 | 17.7 | 0.00 | 0.00 | 0.00 | 26 | 1017.3 |
| 20260508001516 | 22 | 23 | 6.4 | 9.7 | 0.00 | 0.00 | 0.00 | 27 | 1017.4 |
| 20260508001016 | 22 | 338 | 6.4 | 12.9 | 0.00 | 0.00 | 0.00 | 26 | 1017.3 |
| 20260508000516 | 22 | 0 | 3.2 | 8.0 | 0.00 | 0.00 | 0.00 | 29 | 1017.4 |
| 20260508000017 | 22 | 338 | 3.2 | 9.7 | 0.00 | 0.00 | 0.00 | 27 | 1017.4 |
| 20260507235516 | 22 | 0 | 3.2 | 8.0 | 0.00 | 0.00 | 0.00 | 27 | 1017.4 |
| 20260507235016 | 22 | 338 | 6.4 | 12.9 | 0.00 | 0.00 | 0.00 | 28 | 1017.5 |
| 20260507234516 | 21 | 338 | 3.2 | 9.7 | 0.00 | 0.00 | 0.00 | 29 | 1017.3 |
| 20260507234016 | 21 | 338 | 4.8 | 9.7 | 0.00 | 0.00 | 0.00 | 29 | 1017.4 |
| 20260507233556 | 22 | 315 | 8.0 | 11.3 | 0.00 | 0.00 | 0.00 | 29 | 1017.7 |
| 20260507233016 | 22 | 315 | 6.4 | 11.3 | 0.00 | 0.00 | 0.00 | 27 | 1017.7 |
| 20260507232516 | 22 | 90 | 1.6 | 6.4 | 0.00 | 0.00 | 0.00 | 28 | 1017.9 |
| 20260507232016 | 22 | 45 | 6.4 | 14.5 | 0.00 | 0.00 | 0.00 | 29 | 1017.9 |
| 20260507231516 | 22 | 23 | 8.0 | 14.5 | 0.00 | 0.00 | 0.00 | 31 | 1018.0 |
| 20260507231016 | 21 | 0 | 9.7 | 14.5 | 0.00 | 0.00 | 0.00 | 32 | 1017.8 |
| 20260507230516 | 21 | 23 | 6.4 | 12.9 | 0.00 | 0.00 | 0.00 | 30 | 1017.9 |
| 20260507230036 | 21 | 23 | 8.0 | 14.5 | 0.00 | 0.00 | 0.00 | 29 | 1018.1 |
| 20260507225516 | 21 | 338 | 6.4 | 12.9 | 0.00 | 0.00 | 0.00 | 29 | 1018.1 |
| 20260507225016 | 21 | 315 | 8.0 | 14.5 | 0.00 | 0.00 | 0.00 | 30 | 1018.2 |
| 20260507224516 | 21 | 338 | 8.0 | 12.9 | 0.00 | 0.00 | 0.00 | 31 | 1018.4 |
| 20260507224016 | 20 | 0 | 9.7 | 14.5 | 0.00 | 0.00 | 0.00 | 31 | 1018.1 |
| 20260507223516 | 20 | 0 | 11.3 | 17.7 | 0.00 | 0.00 | 0.00 | 33 | 1018.5 |
| 20260507223016 | 20 | 315 | 12.9 | 17.7 | 0.00 | 0.00 | 0.00 | 31 | 1018.6 |
| 20260507222516 | 20 | 315 | 11.3 | 17.7 | 0.00 | 0.00 | 0.00 | 31 | 1018.7 |
| 20260507222016 | 20 | 338 | 12.9 | 19.3 | 0.00 | 0.00 | 0.00 | 30 | 1018.7 |
| 20260507221516 | 21 | 315 | 12.9 | 20.9 | 0.00 | 0.00 | 0.00 | 30 | 1018.8 |
| 20260507221016 | 21 | 338 | 12.9 | 22.5 | 0.00 | 0.00 | 0.00 | 31 | 1018.8 |
| 20260507220516 | 21 | 315 | 9.7 | 17.7 | 0.00 | 0.00 | 0.00 | 30 | 1018.9 |
| 20260507220019 | 21 | 315 | 11.3 | 19.3 | 0.00 | 0.00 | 0.00 | 31 | 1019.0 |
| 20260507215516 | 21 | 315 | 16.1 | 25.7 | 0.00 | 0.00 | 0.00 | 29 | 1018.9 |
| 20260507215016 | 21 | 315 | 14.5 | 22.5 | 0.00 | 0.00 | 0.00 | 30 | 1019.0 |
| 20260507214516 | 21 | 315 | 12.9 | 17.7 | 0.00 | 0.00 | 0.00 | 29 | 1019.0 |
| 20260507214016 | 21 | 315 | 17.7 | 24.1 | 0.00 | 0.00 | 0.00 | 30 | 1019.1 |